Time;durP1;ratioP1;P1;durP2;ratioP2;P2;SDS_P1;SDS_P2;PMS_P1;PMS_P2;Temp;Humidity;BMP_temperature;BMP_pressure;BME280_temperature;BME280_humidity;BME280_pressure;Samples;Min_cycle;Max_cycle;Signal;HPM_P1;HPM_P2
2024/02/21 00:00:53;;;;;;;31.10;13.67;;;;;;;;;;5055830;28;20583;-76
2024/02/21 00:03:19;;;;;;;38.13;16.73;;;;;;;;;;5038176;28;20226;-76
2024/02/21 00:05:45;;;;;;;22.17;13.37;;;;;;;;;;5055723;28;20410;-76
2024/02/21 00:08:11;;;;;;;27.87;15.20;;;;;;;;;;5055283;28;20417;-77
2024/02/21 00:10:40;;;;;;;36.07;15.77;;;;;;;;;;5054565;28;20417;-77
2024/02/21 00:13:06;;;;;;;28.27;14.47;;;;;;;;;;5054192;28;20563;-77
2024/02/21 00:15:32;;;;;;;35.00;15.33;;;;;;;;;;5055435;28;20536;-75
2024/02/21 00:17:58;;;;;;;33.77;15.07;;;;;;;;;;5055514;28;20419;-78
2024/02/21 00:20:25;;;;;;;26.60;16.07;;;;;;;;;;5055514;28;20454;-77
2024/02/21 00:22:52;;;;;;;25.20;15.33;;;;;;;;;;5055551;28;20427;-77
2024/02/21 00:25:21;;;;;;;26.37;15.03;;;;;;;;;;5055382;28;20413;-76
2024/02/21 00:27:47;;;;;;;30.20;16.43;;;;;;;;;;5055155;28;20449;-77
2024/02/21 00:30:13;;;;;;;31.93;17.30;;;;;;;;;;5055139;28;20443;-77
2024/02/21 00:32:39;;;;;;;27.77;16.13;;;;;;;;;;5055375;28;20473;-78
2024/02/21 00:35:05;;;;;;;29.37;16.60;;;;;;;;;;5055231;28;20412;-78
2024/02/21 00:37:31;;;;;;;27.97;15.53;;;;;;;;;;5055269;28;20878;-76
2024/02/21 00:39:57;;;;;;;23.13;15.20;;;;;;;;;;5055236;28;20442;-78
2024/02/21 00:42:23;;;;;;;29.97;15.37;;;;;;;;;;5055134;28;20412;-79
2024/02/21 00:44:49;;;;;;;29.63;15.97;;;;;;;;;;5054728;28;20814;-78
2024/02/21 00:47:15;;;;;;;28.77;14.33;;;;;;;;;;5054023;28;20423;-78
2024/02/21 00:49:41;;;;;;;27.00;16.37;;;;;;;;;;5054202;28;20460;-76
2024/02/21 00:52:13;;;;;;;27.87;15.00;;;;;;;;;;5054514;28;20584;-78
2024/02/21 00:54:39;;;;;;;27.03;15.67;;;;;;;;;;5054819;28;20180;-77
2024/02/21 00:57:06;;;;;;;30.50;16.63;;;;;;;;;;5054489;28;20749;-77
2024/02/21 00:59:32;;;;;;;27.40;15.13;;;;;;;;;;5054366;28;20193;-77
2024/02/21 01:01:58;;;;;;;33.03;17.50;;;;;;;;;;5053816;28;20496;-81
2024/02/21 01:04:24;;;;;;;25.23;15.87;;;;;;;;;;5053648;28;20661;-79
2024/02/21 01:06:50;;;;;;;31.50;17.50;;;;;;;;;;5054296;28;20415;-77
2024/02/21 01:09:16;;;;;;;34.53;18.00;;;;;;;;;;5054246;28;20761;-77
2024/02/21 01:11:42;;;;;;;30.87;18.77;;;;;;;;;;5054393;28;20474;-79
2024/02/21 01:14:08;;;;;;;33.40;17.83;;;;;;;;;;5053706;28;20417;-79
2024/02/21 01:16:34;;;;;;;29.20;16.73;;;;;;;;;;5053685;28;20553;-81
2024/02/21 01:19:00;;;;;;;26.70;18.17;;;;;;;;;;5054729;28;20905;-76
2024/02/21 01:21:25;;;;;;;33.33;17.57;;;;;;;;;;5053422;28;20516;-76
2024/02/21 01:23:51;;;;;;;35.87;19.10;;;;;;;;;;5054480;28;20408;-77
2024/02/21 01:26:18;;;;;;;33.93;17.57;;;;;;;;;;5044651;28;20429;-78
2024/02/21 01:28:44;;;;;;;32.80;19.40;;;;;;;;;;5033741;28;20211;-77
2024/02/21 01:31:10;;;;;;;27.73;18.77;;;;;;;;;;5032444;28;20492;-77
2024/02/21 01:33:36;;;;;;;33.10;18.13;;;;;;;;;;5034185;28;20174;-77
2024/02/21 01:36:02;;;;;;;35.13;19.63;;;;;;;;;;5034249;28;20409;-76
2024/02/21 01:38:29;;;;;;;37.53;19.83;;;;;;;;;;5034456;28;20833;-77
2024/02/21 01:40:55;;;;;;;30.03;18.07;;;;;;;;;;5034399;28;20401;-76
2024/02/21 01:43:21;;;;;;;34.43;17.87;;;;;;;;;;5033936;28;20509;-78
2024/02/21 01:45:49;;;;;;;33.93;20.27;;;;;;;;;;5034096;28;20483;-77
2024/02/21 01:48:16;;;;;;;31.70;18.20;;;;;;;;;;5034137;28;20413;-79
2024/02/21 01:50:41;;;;;;;25.63;17.67;;;;;;;;;;5034159;28;20403;-78
2024/02/21 01:53:08;;;;;;;37.87;17.77;;;;;;;;;;5034129;28;21072;-76
2024/02/21 01:55:34;;;;;;;27.43;16.37;;;;;;;;;;5034155;28;20470;-76
2024/02/21 01:58:00;;;;;;;29.27;16.37;;;;;;;;;;5033613;28;20410;-77
2024/02/21 02:00:27;;;;;;;28.60;18.00;;;;;;;;;;5033915;28;20418;-77
2024/02/21 02:02:53;;;;;;;27.80;16.90;;;;;;;;;;5033861;28;20421;-76
2024/02/21 02:05:39;;;;;;;27.23;15.37;;;;;;;;;;5033845;28;20414;-79
2024/02/21 02:08:06;;;;;;;29.40;17.00;;;;;;;;;;5033837;28;20783;-77
2024/02/21 02:10:33;;;;;;;29.87;17.63;;;;;;;;;;5033790;28;20445;-80
2024/02/21 02:12:59;;;;;;;33.20;18.43;;;;;;;;;;5044706;28;20471;-77
2024/02/21 02:15:25;;;;;;;32.50;17.93;;;;;;;;;;5052811;28;20764;-79
2024/02/21 02:17:51;;;;;;;28.57;18.40;;;;;;;;;;5053527;28;20555;-78
2024/02/21 02:20:17;;;;;;;32.90;18.07;;;;;;;;;;5053183;28;20843;-77
2024/02/21 02:22:44;;;;;;;29.10;18.63;;;;;;;;;;5053518;28;20569;-77
2024/02/21 02:25:10;;;;;;;28.20;16.97;;;;;;;;;;5053406;28;20507;-76
2024/02/21 02:27:43;;;;;;;34.97;17.90;;;;;;;;;;5052963;28;20853;-78
2024/02/21 02:30:09;;;;;;;34.03;20.07;;;;;;;;;;5055371;28;20400;-77
2024/02/21 02:32:35;;;;;;;32.63;16.33;;;;;;;;;;5073114;28;20604;-77
2024/02/21 02:35:01;;;;;;;31.90;19.93;;;;;;;;;;5073304;28;20915;-77
2024/02/21 02:37:27;;;;;;;33.63;18.40;;;;;;;;;;5073060;28;20408;-77
2024/02/21 02:39:53;;;;;;;40.50;20.47;;;;;;;;;;5073144;28;20404;-79
2024/02/21 02:42:22;;;;;;;30.40;19.63;;;;;;;;;;5072633;28;20532;-77
2024/02/21 02:44:48;;;;;;;32.50;19.50;;;;;;;;;;5072901;28;20177;-77
2024/02/21 02:47:14;;;;;;;39.10;22.00;;;;;;;;;;5073003;28;20464;-78
2024/02/21 02:49:40;;;;;;;32.90;18.03;;;;;;;;;;5072907;28;20614;-77
2024/02/21 02:52:06;;;;;;;37.67;23.10;;;;;;;;;;5072920;28;20216;-77
2024/02/21 02:54:32;;;;;;;34.77;20.80;;;;;;;;;;5072881;28;20766;-77
2024/02/21 02:56:57;;;;;;;42.63;21.13;;;;;;;;;;5072812;28;20473;-77
2024/02/21 02:59:23;;;;;;;37.93;22.00;;;;;;;;;;5072502;28;20915;-76
2024/02/21 03:01:52;;;;;;;37.70;23.30;;;;;;;;;;5072690;28;20166;-77
2024/02/21 03:04:18;;;;;;;40.90;23.07;;;;;;;;;;5072631;28;20408;-76
2024/02/21 03:06:44;;;;;;;36.27;21.90;;;;;;;;;;5071484;28;20437;-76
2024/02/21 03:09:10;;;;;;;38.43;22.03;;;;;;;;;;5072720;28;20180;-77
2024/02/21 03:11:36;;;;;;;39.60;22.90;;;;;;;;;;5072700;28;20260;-80
2024/02/21 03:14:02;;;;;;;41.37;21.53;;;;;;;;;;5072400;28;20204;-76
2024/02/21 03:16:28;;;;;;;37.20;22.43;;;;;;;;;;5072616;28;20426;-78
2024/02/21 03:19:00;;;;;;;44.43;24.13;;;;;;;;;;5072622;28;20412;-79
2024/02/21 03:21:26;;;;;;;35.90;20.30;;;;;;;;;;5072678;28;20408;-77
2024/02/21 03:23:52;;;;;;;44.07;24.03;;;;;;;;;;5071335;28;20787;-78
2024/02/21 03:26:18;;;;;;;35.10;19.07;;;;;;;;;;5071784;28;20416;-78
2024/02/21 03:28:46;;;;;;;43.93;22.50;;;;;;;;;;5072152;28;20412;-77
2024/02/21 03:31:13;;;;;;;42.13;22.30;;;;;;;;;;5072248;28;20483;-76
2024/02/21 03:33:40;;;;;;;30.07;20.83;;;;;;;;;;5072488;28;20407;-77
2024/02/21 03:36:06;;;;;;;36.30;20.87;;;;;;;;;;5072457;28;20891;-76
2024/02/21 03:38:32;;;;;;;35.70;18.43;;;;;;;;;;5072366;28;20476;-78
2024/02/21 03:40:58;;;;;;;31.00;20.23;;;;;;;;;;5072365;28;20473;-76
2024/02/21 03:43:23;;;;;;;43.03;20.80;;;;;;;;;;5072006;28;20518;-78
2024/02/21 03:45:49;;;;;;;26.97;18.87;;;;;;;;;;5072419;28;20180;-77
2024/02/21 03:48:18;;;;;;;33.80;19.60;;;;;;;;;;5072295;28;20168;-77
2024/02/21 03:50:44;;;;;;;31.67;19.17;;;;;;;;;;5072265;28;20877;-79
2024/02/21 03:53:10;;;;;;;32.00;18.93;;;;;;;;;;5072175;28;20475;-77
2024/02/21 03:55:36;;;;;;;34.07;19.20;;;;;;;;;;5072191;28;20457;-78
2024/02/21 03:58:02;;;;;;;35.27;20.37;;;;;;;;;;5071894;28;20621;-78
2024/02/21 04:00:27;;;;;;;33.10;17.90;;;;;;;;;;5054498;28;20200;-81
2024/02/21 04:02:53;;;;;;;34.17;18.83;;;;;;;;;;5072229;28;20847;-79
2024/02/21 04:05:19;;;;;;;32.90;18.97;;;;;;;;;;5072254;28;20177;-79
2024/02/21 04:07:45;;;;;;;33.07;18.47;;;;;;;;;;5072030;28;20416;-78
2024/02/21 04:10:11;;;;;;;34.60;20.57;;;;;;;;;;5072148;28;20922;-78
2024/02/21 04:12:38;;;;;;;34.63;18.80;;;;;;;;;;5071713;28;20495;-77
2024/02/21 04:15:04;;;;;;;34.30;18.80;;;;;;;;;;5072095;28;20401;-81
2024/02/21 04:17:30;;;;;;;33.67;18.77;;;;;;;;;;5070777;28;20924;-78
2024/02/21 04:20:08;;;;;;;30.40;18.27;;;;;;;;;;5072034;28;20419;-77
2024/02/21 04:22:34;;;;;;;30.67;17.70;;;;;;;;;;5072038;28;20189;-77
2024/02/21 04:25:00;;;;;;;33.10;18.80;;;;;;;;;;5071940;28;20407;-77
2024/02/21 04:27:26;;;;;;;27.87;18.90;;;;;;;;;;5071712;28;20880;-80
2024/02/21 04:29:53;;;;;;;34.57;20.27;;;;;;;;;;5070733;28;20431;-77
2024/02/21 04:32:19;;;;;;;38.07;20.53;;;;;;;;;;5071806;28;20967;-78
2024/02/21 04:34:45;;;;;;;28.70;19.60;;;;;;;;;;5071943;28;20500;-79
2024/02/21 04:37:11;;;;;;;37.50;18.27;;;;;;;;;;5072889;28;20406;-79
2024/02/21 04:39:37;;;;;;;34.83;19.27;;;;;;;;;;5075450;28;20942;-78
2024/02/21 04:42:03;;;;;;;35.07;21.23;;;;;;;;;;5075163;28;20412;-78
2024/02/21 04:44:29;;;;;;;30.27;19.20;;;;;;;;;;5075426;28;20460;-77
2024/02/21 04:46:55;;;;;;;34.20;18.83;;;;;;;;;;5075303;28;20415;-78
2024/02/21 04:49:20;;;;;;;27.57;18.63;;;;;;;;;;5074034;28;20177;-78
2024/02/21 04:51:46;;;;;;;33.00;17.90;;;;;;;;;;5075174;28;20459;-77
2024/02/21 04:54:12;;;;;;;30.73;21.23;;;;;;;;;;5075234;28;20633;-78
2024/02/21 04:56:44;;;;;;;33.33;19.37;;;;;;;;;;5075169;28;20407;-79
2024/02/21 04:59:10;;;;;;;32.20;19.97;;;;;;;;;;5075085;28;20439;-79
2024/02/21 05:01:36;;;;;;;33.33;20.00;;;;;;;;;;5075092;28;20436;-78
2024/02/21 05:04:02;;;;;;;34.97;19.97;;;;;;;;;;5075058;28;20607;-78
2024/02/21 05:06:28;;;;;;;35.90;20.57;;;;;;;;;;5075028;28;20401;-79
2024/02/21 05:08:55;;;;;;;26.37;17.57;;;;;;;;;;5075042;28;20430;-77
2024/02/21 05:11:21;;;;;;;34.00;19.50;;;;;;;;;;5073862;28;20859;-79
2024/02/21 05:13:47;;;;;;;30.40;18.97;;;;;;;;;;5074416;28;20545;-77
2024/02/21 05:16:13;;;;;;;33.80;18.90;;;;;;;;;;5073550;28;20510;-78
2024/02/21 05:18:40;;;;;;;35.80;18.40;;;;;;;;;;5074754;28;20427;-78
2024/02/21 05:21:06;;;;;;;28.50;16.90;;;;;;;;;;5074745;28;20495;-78
2024/02/21 05:23:32;;;;;;;28.10;16.20;;;;;;;;;;5074637;28;20825;-77
2024/02/21 05:25:58;;;;;;;25.17;15.53;;;;;;;;;;5074701;28;20407;-78
2024/02/21 05:28:24;;;;;;;28.20;18.07;;;;;;;;;;5074263;28;20193;-78
2024/02/21 05:30:50;;;;;;;28.10;16.30;;;;;;;;;;5074459;28;20224;-79
2024/02/21 05:33:21;;;;;;;26.40;15.80;;;;;;;;;;5074463;28;20471;-80
2024/02/21 05:35:48;;;;;;;24.13;14.93;;;;;;;;;;5074558;28;20761;-81
2024/02/21 05:38:14;;;;;;;27.47;17.23;;;;;;;;;;5074336;28;20454;-78
2024/02/21 05:40:40;;;;;;;21.30;15.20;;;;;;;;;;5074263;28;20419;-77
2024/02/21 05:43:06;;;;;;;29.13;16.10;;;;;;;;;;5065908;28;20799;-77
2024/02/21 05:45:32;;;;;;;22.90;14.50;;;;;;;;;;5054286;28;20412;-78
2024/02/21 05:47:58;;;;;;;19.17;12.03;;;;;;;;;;5054063;28;20509;-77
2024/02/21 05:50:28;;;;;;;21.70;13.00;;;;;;;;;;5053575;28;20408;-78
2024/02/21 05:52:55;;;;;;;19.10;12.20;;;;;;;;;;5054077;28;20824;-78
2024/02/21 05:55:21;;;;;;;16.63;13.33;;;;;;;;;;5054172;28;20402;-77
2024/02/21 05:57:47;;;;;;;20.87;12.67;;;;;;;;;;5045695;28;20491;-80
2024/02/21 06:00:13;;;;;;;23.87;14.17;;;;;;;;;;5044388;28;20404;-78
2024/02/21 06:02:39;;;;;;;20.97;12.57;;;;;;;;;;5042428;28;20742;-78
2024/02/21 06:05:09;;;;;;;22.50;12.30;;;;;;;;;;5043400;28;20396;-78
2024/02/21 06:07:35;;;;;;;20.07;13.20;;;;;;;;;;5041575;28;20417;-77
2024/02/21 06:10:02;;;;;;;19.87;10.50;;;;;;;;;;5045070;28;20400;-77
2024/02/21 06:12:28;;;;;;;15.17;9.50;;;;;;;;;;5048100;28;20500;-78
2024/02/21 06:14:56;;;;;;;16.00;10.23;;;;;;;;;;5052153;28;20421;-77
2024/02/21 06:17:22;;;;;;;17.53;10.20;;;;;;;;;;5052271;28;20428;-78
2024/02/21 06:19:48;;;;;;;18.00;10.00;;;;;;;;;;5053466;28;20474;-76
2024/02/21 06:22:14;;;;;;;17.43;9.83;;;;;;;;;;5053552;28;20419;-77
2024/02/21 06:24:40;;;;;;;16.10;10.23;;;;;;;;;;5053411;28;20185;-78
2024/02/21 06:27:06;;;;;;;16.10;10.17;;;;;;;;;;5053010;28;20740;-77
2024/02/21 06:29:32;;;;;;;16.60;9.23;;;;;;;;;;5052083;28;20415;-78
2024/02/21 06:31:58;;;;;;;13.03;9.70;;;;;;;;;;5065588;28;20483;-77
2024/02/21 06:34:24;;;;;;;15.13;10.50;;;;;;;;;;5053523;28;20443;-76
2024/02/21 06:36:50;;;;;;;15.97;9.90;;;;;;;;;;5053325;28;20418;-77
2024/02/21 06:39:17;;;;;;;13.57;8.70;;;;;;;;;;5053411;28;20416;-78
2024/02/21 06:41:43;;;;;;;15.27;9.63;;;;;;;;;;5052818;28;20465;-77
2024/02/21 06:44:09;;;;;;;13.40;9.07;;;;;;;;;;5053189;28;20889;-77
2024/02/21 06:46:35;;;;;;;15.57;8.77;;;;;;;;;;5053128;28;20408;-77
2024/02/21 06:49:02;;;;;;;14.80;9.60;;;;;;;;;;5053022;28;20416;-77
2024/02/21 06:51:28;;;;;;;13.07;9.17;;;;;;;;;;5053113;28;20410;-77
2024/02/21 06:53:54;;;;;;;10.33;7.17;;;;;;;;;;5052912;28;20429;-78
2024/02/21 06:56:20;;;;;;;12.87;8.43;;;;;;;;;;5052720;28;20413;-78
2024/02/21 06:58:46;;;;;;;11.07;7.93;;;;;;;;;;5052528;28;20416;-78
2024/02/21 07:01:12;;;;;;;11.10;7.10;;;;;;;;;;5052786;28;20420;-78
2024/02/21 07:03:38;;;;;;;11.10;7.60;;;;;;;;;;5052867;28;20412;-78
2024/02/21 07:06:04;;;;;;;10.27;7.87;;;;;;;;;;5052854;28;20423;-78
2024/02/21 07:08:30;;;;;;;10.43;7.17;;;;;;;;;;5052720;28;20413;-79
2024/02/21 07:10:56;;;;;;;13.40;7.43;;;;;;;;;;5052686;28;20417;-77
2024/02/21 07:13:22;;;;;;;13.07;7.13;;;;;;;;;;5052248;28;20565;-77
2024/02/21 07:15:49;;;;;;;11.87;6.83;;;;;;;;;;5053933;28;20513;-78
2024/02/21 07:18:25;;;;;;;13.60;8.17;;;;;;;;;;5067796;28;20422;-77
2024/02/21 07:20:51;;;;;;;12.57;8.03;;;;;;;;;;5052352;28;20407;-79
2024/02/21 07:23:17;;;;;;;11.20;6.73;;;;;;;;;;5052691;28;20444;-77
2024/02/21 07:25:43;;;;;;;12.03;7.30;;;;;;;;;;5052604;28;20444;-78
2024/02/21 07:28:09;;;;;;;11.77;8.33;;;;;;;;;;5052217;28;20170;-77
2024/02/21 07:30:35;;;;;;;14.03;8.47;;;;;;;;;;5051106;28;20457;-76
2024/02/21 07:33:01;;;;;;;13.70;7.80;;;;;;;;;;5052420;28;20477;-76
2024/02/21 07:35:29;;;;;;;12.90;7.87;;;;;;;;;;5052448;28;20411;-77
2024/02/21 07:37:55;;;;;;;12.70;7.67;;;;;;;;;;5052505;28;20417;-78
2024/02/21 07:40:21;;;;;;;11.07;6.87;;;;;;;;;;5052404;28;20458;-78
2024/02/21 07:42:47;;;;;;;10.30;6.23;;;;;;;;;;5052046;28;20179;-78
2024/02/21 07:45:13;;;;;;;10.83;6.13;;;;;;;;;;5052410;28;20406;-80
2024/02/21 07:47:39;;;;;;;9.20;5.87;;;;;;;;;;5052266;28;20414;-79
2024/02/21 07:50:05;;;;;;;10.67;6.53;;;;;;;;;;5052258;28;20776;-79
2024/02/21 07:52:31;;;;;;;8.20;5.90;;;;;;;;;;5052188;28;20469;-78
2024/02/21 07:54:57;;;;;;;11.07;6.03;;;;;;;;;;5051882;28;20400;-79
2024/02/21 07:57:23;;;;;;;7.67;5.00;;;;;;;;;;5051677;28;20819;-79
2024/02/21 07:59:49;;;;;;;7.50;5.00;;;;;;;;;;5052040;28;20413;-79
2024/02/21 08:02:15;;;;;;;6.43;5.10;;;;;;;;;;5052012;28;20426;-78
2024/02/21 08:04:41;;;;;;;8.07;4.53;;;;;;;;;;5052136;28;20485;-77
2024/02/21 08:07:07;;;;;;;7.20;4.37;;;;;;;;;;5054805;28;20434;-79
2024/02/21 08:09:34;;;;;;;6.83;4.30;;;;;;;;;;5052332;28;20444;-79
2024/02/21 08:12:00;;;;;;;5.80;3.37;;;;;;;;;;5052812;28;20464;-79
2024/02/21 08:14:26;;;;;;;6.27;4.10;;;;;;;;;;5038617;28;20770;-76
2024/02/21 08:16:53;;;;;;;6.10;3.43;;;;;;;;;;5056284;28;20408;-78
2024/02/21 08:19:19;;;;;;;6.03;3.63;;;;;;;;;;5054830;28;20433;-79
2024/02/21 08:21:46;;;;;;;5.17;3.03;;;;;;;;;;5055694;28;20429;-79
2024/02/21 08:24:12;;;;;;;5.80;3.17;;;;;;;;;;5056145;28;20472;-80
2024/02/21 08:26:40;;;;;;;5.53;3.17;;;;;;;;;;5055596;28;20416;-78
2024/02/21 08:29:06;;;;;;;5.63;3.80;;;;;;;;;;5055647;28;20912;-76
2024/02/21 08:31:33;;;;;;;5.03;2.90;;;;;;;;;;5070798;28;20483;-82
2024/02/21 08:34:02;;;;;;;4.83;2.10;;;;;;;;;;5055758;28;20413;-80
2024/02/21 08:36:29;;;;;;;4.53;2.60;;;;;;;;;;5055906;28;20755;-81
2024/02/21 08:38:55;;;;;;;4.00;2.97;;;;;;;;;;5056069;28;20401;-82
2024/02/21 08:41:23;;;;;;;5.40;3.50;;;;;;;;;;5055362;28;20473;-81
2024/02/21 08:43:49;;;;;;;5.03;2.80;;;;;;;;;;5055721;28;20413;-78
2024/02/21 08:46:15;;;;;;;4.80;3.20;;;;;;;;;;5055640;28;20762;-82
2024/02/21 08:48:41;;;;;;;4.83;3.00;;;;;;;;;;5070999;28;20449;-80
2024/02/21 08:51:07;;;;;;;5.43;2.80;;;;;;;;;;5070867;28;20856;-81
2024/02/21 08:53:33;;;;;;;5.60;3.10;;;;;;;;;;5055421;28;20507;-81
2024/02/21 08:55:59;;;;;;;6.40;2.77;;;;;;;;;;5055493;28;20432;-80
2024/02/21 08:58:26;;;;;;;5.20;3.65;;;;;;;;;;5054703;28;20408;-78
2024/02/21 09:00:52;;;;;;;3.30;1.73;;;;;;;;;;5055214;28;20216;-77
2024/02/21 09:03:19;;;;;;;5.70;1.80;;;;;;;;;;5055207;28;20502;-80
2024/02/21 09:05:46;;;;;;;4.17;0.97;;;;;;;;;;5055247;28;20450;-80
2024/02/21 09:08:12;;;;;;;7.80;1.53;;;;;;;;;;5055084;28;20952;-78
2024/02/21 09:10:38;;;;;;;4.27;1.30;;;;;;;;;;5055161;28;20767;-78
2024/02/21 09:13:04;;;;;;;7.47;1.23;;;;;;;;;;5053474;28;20477;-78
2024/02/21 09:15:30;;;;;;;6.17;1.60;;;;;;;;;;5054800;28;20404;-79
2024/02/21 09:17:56;;;;;;;6.17;1.60;;;;;;;;;;5054758;28;20619;-77
2024/02/21 09:20:22;;;;;;;5.50;1.20;;;;;;;;;;5054834;28;20417;-81
2024/02/21 09:22:47;;;;;;;10.60;1.57;;;;;;;;;;5054580;28;20429;-81
2024/02/21 09:25:13;;;;;;;7.37;0.63;;;;;;;;;;5053902;28;20949;-77
2024/02/21 09:27:39;;;;;;;6.63;1.90;;;;;;;;;;5054299;28;20899;-77
2024/02/21 09:30:06;;;;;;;4.00;0.83;;;;;;;;;;5056518;28;20417;-77
2024/02/21 09:32:32;;;;;;;3.77;1.37;;;;;;;;;;5074536;28;20480;-77
2024/02/21 09:34:58;;;;;;;9.40;1.60;;;;;;;;;;5074591;28;20411;-79
2024/02/21 09:37:24;;;;;;;5.27;1.30;;;;;;;;;;5074564;28;20461;-77
2024/02/21 09:39:52;;;;;;;3.93;1.10;;;;;;;;;;5074499;28;20482;-77
2024/02/21 09:42:20;;;;;;;4.57;1.67;;;;;;;;;;5074216;28;20439;-77
2024/02/21 09:44:46;;;;;;;7.20;1.93;;;;;;;;;;5074429;28;20412;-78
2024/02/21 09:47:28;;;;;;;4.90;1.63;;;;;;;;;;5074294;28;20512;-78
2024/02/21 09:49:56;;;;;;;5.23;1.50;;;;;;;;;;5074178;28;20448;-77
2024/02/21 09:52:23;;;;;;;6.07;1.70;;;;;;;;;;5072779;28;20472;-77
2024/02/21 09:54:52;;;;;;;3.80;2.03;;;;;;;;;;5074097;28;20420;-77
2024/02/21 09:57:18;;;;;;;4.30;2.30;;;;;;;;;;5073777;28;20419;-77
2024/02/21 09:59:45;;;;;;;6.07;3.13;;;;;;;;;;5074135;28;20421;-78
2024/02/21 10:02:12;;;;;;;4.23;2.77;;;;;;;;;;5074082;28;20405;-77
2024/02/21 10:04:40;;;;;;;4.80;2.80;;;;;;;;;;5073972;28;20409;-77
2024/02/21 10:07:06;;;;;;;5.33;3.07;;;;;;;;;;5073785;28;20412;-76
2024/02/21 10:09:33;;;;;;;7.03;4.37;;;;;;;;;;5072527;28;20430;-76
2024/02/21 10:12:09;;;;;;;6.73;4.43;;;;;;;;;;5073416;28;20479;-76
2024/02/21 10:14:35;;;;;;;9.07;5.87;;;;;;;;;;5073935;28;20405;-76
2024/02/21 10:17:02;;;;;;;10.30;6.10;;;;;;;;;;5072902;28;20432;-83
2024/02/21 10:19:28;;;;;;;11.10;7.63;;;;;;;;;;5073169;28;20468;-79
2024/02/21 10:22:00;;;;;;;13.43;8.43;;;;;;;;;;5074231;28;20421;-81
2024/02/21 10:24:27;;;;;;;11.47;8.33;;;;;;;;;;5074121;28;20422;-81
2024/02/21 10:27:03;;;;;;;15.40;9.10;;;;;;;;;;5073785;28;20463;-80
2024/02/21 10:29:30;;;;;;;15.70;9.67;;;;;;;;;;5074158;28;20414;-81
2024/02/21 10:32:10;;;;;;;17.17;9.33;;;;;;;;;;5072533;28;20478;-77
2024/02/21 10:34:37;;;;;;;19.50;11.30;;;;;;;;;;5073657;28;20409;-82
2024/02/21 10:37:03;;;;;;;17.90;11.67;;;;;;;;;;5074003;28;20404;-81
2024/02/21 10:39:33;;;;;;;20.23;11.03;;;;;;;;;;5072596;28;20448;-80
2024/02/21 10:42:03;;;;;;;23.83;13.40;;;;;;;;;;5072139;28;20794;-80
2024/02/21 10:44:31;;;;;;;23.80;12.77;;;;;;;;;;5074025;28;20417;-81
2024/02/21 10:46:57;;;;;;;20.93;13.17;;;;;;;;;;5074013;28;20477;-82
2024/02/21 10:49:28;;;;;;;22.27;13.53;;;;;;;;;;5073815;28;20401;-78
2024/02/21 10:52:06;;;;;;;20.07;13.30;;;;;;;;;;5072460;28;20469;-82
2024/02/21 10:54:32;;;;;;;18.67;12.70;;;;;;;;;;5074023;28;20503;-81
2024/02/21 10:56:58;;;;;;;26.77;12.37;;;;;;;;;;5073648;28;20433;-81
2024/02/21 10:59:26;;;;;;;23.63;13.57;;;;;;;;;;5073707;28;20424;-79
2024/02/21 11:01:52;;;;;;;18.30;11.73;;;;;;;;;;5073680;28;20415;-82
2024/02/21 11:04:18;;;;;;;23.10;14.33;;;;;;;;;;5072875;28;20426;-79
2024/02/21 11:06:44;;;;;;;21.03;12.03;;;;;;;;;;5072742;28;20410;-79
2024/02/21 11:09:11;;;;;;;20.83;11.33;;;;;;;;;;5072770;28;20823;-78
2024/02/21 11:11:47;;;;;;;22.07;12.70;;;;;;;;;;5055402;28;20426;-75
2024/02/21 11:14:20;;;;;;;19.83;11.20;;;;;;;;;;5042517;28;20974;-79
2024/02/21 11:16:46;;;;;;;19.07;10.20;;;;;;;;;;5027762;28;20421;-75
2024/02/21 11:19:22;;;;;;;19.10;10.80;;;;;;;;;;5042315;28;20413;-81
2024/02/21 11:21:48;;;;;;;14.17;9.83;;;;;;;;;;5042022;28;20422;-81
2024/02/21 11:24:25;;;;;;;16.37;10.37;;;;;;;;;;5041682;28;20924;-81
2024/02/21 11:26:51;;;;;;;21.17;10.47;;;;;;;;;;5040048;28;20512;-82
2024/02/21 11:29:24;;;;;;;14.03;8.67;;;;;;;;;;5042784;28;20408;-77
2024/02/21 11:31:50;;;;;;;14.17;9.03;;;;;;;;;;5021743;28;20477;-79
2024/02/21 11:34:18;;;;;;;14.80;8.97;;;;;;;;;;5042809;28;20415;-78
2024/02/21 11:36:51;;;;;;;14.27;8.47;;;;;;;;;;5038445;28;20422;-78
2024/02/21 11:39:21;;;;;;;17.20;10.50;;;;;;;;;;5041239;28;20414;-79
2024/02/21 11:41:48;;;;;;;17.57;9.97;;;;;;;;;;5041725;28;20420;-77
2024/02/21 11:44:17;;;;;;;14.97;10.33;;;;;;;;;;5052609;28;20744;-77
2024/02/21 11:46:52;;;;;;;11.37;7.77;;;;;;;;;;5052807;28;20483;-78
2024/02/21 11:49:18;;;;;;;15.67;8.40;;;;;;;;;;5056602;28;20416;-77
2024/02/21 11:51:44;;;;;;;15.30;8.60;;;;;;;;;;5056274;28;20468;-78
2024/02/21 11:54:13;;;;;;;11.47;7.03;;;;;;;;;;5056236;28;20510;-78
2024/02/21 11:56:39;;;;;;;10.63;7.60;;;;;;;;;;5056066;28;20496;-79
2024/02/21 11:59:08;;;;;;;11.83;7.57;;;;;;;;;;5055031;28;20541;-78
2024/02/21 12:01:34;;;;;;;13.23;7.20;;;;;;;;;;5056230;28;20175;-77
2024/02/21 12:04:00;;;;;;;16.23;8.90;;;;;;;;;;5056250;28;20418;-77
2024/02/21 12:06:26;;;;;;;14.47;8.93;;;;;;;;;;5054809;28;20420;-79
2024/02/21 12:08:53;;;;;;;14.80;8.83;;;;;;;;;;5056167;28;20784;-77
2024/02/21 12:11:23;;;;;;;14.27;10.10;;;;;;;;;;5055647;28;20496;-79
2024/02/21 12:14:03;;;;;;;16.80;8.37;;;;;;;;;;5055999;28;21034;-77
2024/02/21 12:16:30;;;;;;;19.17;9.23;;;;;;;;;;5055963;28;20467;-79
2024/02/21 12:18:56;;;;;;;15.30;8.87;;;;;;;;;;5057251;28;20451;-78
2024/02/21 12:21:28;;;;;;;14.73;8.77;;;;;;;;;;5057005;28;20419;-78
2024/02/21 12:23:54;;;;;;;16.30;10.23;;;;;;;;;;5054600;28;20414;-81
2024/02/21 12:26:20;;;;;;;17.57;10.73;;;;;;;;;;5055536;28;20464;-76
2024/02/21 12:28:46;;;;;;;14.10;10.70;;;;;;;;;;5055651;28;20442;-79
2024/02/21 12:31:12;;;;;;;18.93;10.10;;;;;;;;;;5066325;28;20555;-76
2024/02/21 12:33:38;;;;;;;18.80;9.13;;;;;;;;;;5075621;28;20478;-77
2024/02/21 12:36:04;;;;;;;16.70;10.13;;;;;;;;;;5074156;28;20885;-76
2024/02/21 12:38:30;;;;;;;16.20;10.17;;;;;;;;;;5074344;28;20432;-77
2024/02/21 12:40:57;;;;;;;16.37;10.30;;;;;;;;;;5075187;28;20416;-77
2024/02/21 12:43:23;;;;;;;15.40;9.07;;;;;;;;;;5075478;28;20443;-79
2024/02/21 12:45:49;;;;;;;17.93;9.90;;;;;;;;;;5075446;28;20409;-79
2024/02/21 12:48:15;;;;;;;16.17;10.27;;;;;;;;;;5074106;28;20960;-78
2024/02/21 12:50:48;;;;;;;15.70;9.93;;;;;;;;;;5075335;28;20448;-82
2024/02/21 12:53:15;;;;;;;16.03;9.23;;;;;;;;;;5075155;28;20554;-79
2024/02/21 12:55:41;;;;;;;18.00;9.90;;;;;;;;;;5074805;28;20415;-80
2024/02/21 12:58:09;;;;;;;15.13;10.80;;;;;;;;;;5075037;28;20434;-80
2024/02/21 13:00:35;;;;;;;18.00;9.93;;;;;;;;;;5075150;28;20405;-79
2024/02/21 13:03:02;;;;;;;20.97;10.90;;;;;;;;;;5075113;28;20473;-78
2024/02/21 13:05:28;;;;;;;17.93;11.50;;;;;;;;;;5074956;28;20413;-77
2024/02/21 13:07:54;;;;;;;16.17;11.10;;;;;;;;;;5074893;28;20423;-79
2024/02/21 13:10:21;;;;;;;21.90;11.73;;;;;;;;;;5066324;28;20539;-76
2024/02/21 13:12:47;;;;;;;15.53;10.50;;;;;;;;;;5065241;28;20567;-78
2024/02/21 13:15:14;;;;;;;20.10;11.07;;;;;;;;;;5064366;28;20414;-82
2024/02/21 13:17:43;;;;;;;16.50;12.03;;;;;;;;;;5063638;28;20410;-77
2024/02/21 13:20:10;;;;;;;15.97;11.87;;;;;;;;;;5063360;28;20489;-80
2024/02/21 13:22:36;;;;;;;14.33;10.17;;;;;;;;;;5062891;28;20949;-79
2024/02/21 13:25:02;;;;;;;13.43;10.30;;;;;;;;;;5064905;28;20903;-78
2024/02/21 13:27:28;;;;;;;15.53;10.50;;;;;;;;;;5064616;28;21062;-78
2024/02/21 13:29:54;;;;;;;18.33;10.30;;;;;;;;;;5063889;28;20490;-76
2024/02/21 13:32:20;;;;;;;16.33;11.83;;;;;;;;;;5054895;28;20547;-77
2024/02/21 13:34:46;;;;;;;14.20;10.80;;;;;;;;;;5054905;28;20422;-78
2024/02/21 13:37:13;;;;;;;16.83;10.50;;;;;;;;;;5054788;28;20403;-77
2024/02/21 13:39:39;;;;;;;17.33;11.00;;;;;;;;;;5056278;28;20930;-77
2024/02/21 13:42:06;;;;;;;17.07;10.30;;;;;;;;;;5074412;28;20416;-77
2024/02/21 13:44:36;;;;;;;24.63;12.53;;;;;;;;;;5074848;28;20422;-77
2024/02/21 13:47:02;;;;;;;17.23;9.43;;;;;;;;;;5074618;28;20407;-77
2024/02/21 13:49:28;;;;;;;15.43;9.13;;;;;;;;;;5073343;28;20936;-78
2024/02/21 13:51:54;;;;;;;12.17;9.60;;;;;;;;;;5074639;28;20539;-77
2024/02/21 13:54:21;;;;;;;14.23;10.40;;;;;;;;;;5074716;28;20839;-78
2024/02/21 13:56:47;;;;;;;16.60;10.43;;;;;;;;;;5074483;28;20483;-77
2024/02/21 13:59:17;;;;;;;15.33;10.00;;;;;;;;;;5074749;28;20448;-77
2024/02/21 14:01:44;;;;;;;13.20;10.77;;;;;;;;;;5074848;28;20765;-79
2024/02/21 14:04:10;;;;;;;15.63;9.50;;;;;;;;;;5074878;28;20913;-78
2024/02/21 14:06:36;;;;;;;16.00;10.77;;;;;;;;;;5074969;28;20505;-82
2024/02/21 14:09:03;;;;;;;11.53;8.40;;;;;;;;;;5074449;28;20432;-81
2024/02/21 14:11:30;;;;;;;17.73;11.40;;;;;;;;;;5073775;28;20422;-81
2024/02/21 14:13:57;;;;;;;13.33;9.27;;;;;;;;;;5074719;28;20434;-76
2024/02/21 14:16:23;;;;;;;14.57;8.97;;;;;;;;;;5074542;28;20421;-75
2024/02/21 14:18:49;;;;;;;13.33;9.53;;;;;;;;;;5074312;28;20408;-78
2024/02/21 14:21:15;;;;;;;12.73;8.70;;;;;;;;;;5074322;28;20409;-76